createdAt,value
2022-09-07T00:00:36.516Z,14.50
2022-09-07T00:05:43.493Z,14.30
2022-09-07T00:10:59.618Z,14.20
2022-09-07T00:16:14.649Z,14.10
2022-09-07T00:21:18.158Z,14.20
2022-09-07T00:26:23.843Z,14.00
2022-09-07T00:31:29.733Z,14.10
2022-09-07T00:36:32.248Z,13.90
2022-09-07T00:41:34.652Z,14.00
2022-09-07T00:46:37.132Z,14.00
2022-09-07T00:51:42.448Z,13.90
2022-09-07T00:56:47.102Z,13.90
2022-09-07T01:01:49.736Z,13.80
2022-09-07T01:06:55.320Z,13.90
2022-09-07T01:12:02.137Z,13.80
2022-09-07T01:17:26.335Z,13.70
2022-09-07T01:23:10.637Z,13.60
2022-09-07T01:28:39.831Z,13.60
2022-09-07T01:33:45.445Z,13.60
2022-09-07T01:38:54.082Z,13.60
2022-09-07T01:44:07.580Z,13.50
2022-09-07T01:49:22.516Z,13.40
2022-09-07T01:54:32.915Z,13.40
2022-09-07T01:59:45.606Z,13.30
2022-09-07T02:04:59.079Z,13.20
2022-09-07T02:10:10.941Z,13.00
2022-09-07T02:15:18.838Z,13.10
2022-09-07T02:20:31.308Z,13.10
2022-09-07T02:25:39.070Z,13.00
2022-09-07T02:30:42.553Z,13.00
2022-09-07T02:35:46.227Z,12.80
2022-09-07T02:40:53.231Z,12.80
2022-09-07T02:46:01.662Z,12.70
2022-09-07T02:51:17.890Z,12.80
2022-09-07T02:56:30.946Z,12.70
2022-09-07T03:01:54.715Z,12.50
2022-09-07T03:07:10.422Z,12.60
2022-09-07T03:12:13.291Z,12.60
2022-09-07T03:17:15.977Z,12.50
2022-09-07T03:22:18.416Z,12.40
2022-09-07T03:27:20.836Z,12.50
2022-09-07T03:32:23.244Z,12.50
2022-09-07T03:37:26.041Z,12.40
2022-09-07T03:42:28.420Z,12.30
2022-09-07T03:47:30.872Z,12.30
2022-09-07T03:52:34.896Z,12.40
2022-09-07T03:57:37.574Z,12.30
2022-09-07T04:02:40.467Z,12.20
2022-09-07T04:07:42.903Z,12.20
2022-09-07T04:12:45.324Z,12.20
2022-09-07T04:17:48.313Z,12.20
2022-09-07T04:22:54.222Z,12.10
2022-09-07T04:27:57.291Z,12.00
2022-09-07T04:32:59.677Z,12.00
2022-09-07T04:38:02.124Z,12.00
2022-09-07T04:43:05.532Z,12.00
2022-09-07T04:48:07.968Z,12.20
2022-09-07T04:53:10.445Z,12.20
2022-09-07T04:58:12.931Z,12.20
2022-09-07T05:03:15.309Z,12.30
2022-09-07T05:08:17.764Z,12.20
2022-09-07T05:13:20.337Z,12.20
2022-09-07T05:18:22.774Z,12.50
2022-09-07T05:23:25.542Z,12.30
2022-09-07T05:28:28.046Z,12.50
2022-09-07T05:38:58.688Z,12.70
2022-09-07T05:49:24.005Z,13.00
2022-09-07T05:54:26.667Z,13.10
2022-09-07T05:59:29.471Z,13.20
2022-09-07T06:04:32.154Z,13.40
2022-09-07T06:09:34.805Z,13.50
2022-09-07T06:14:37.247Z,13.60
2022-09-07T06:19:39.667Z,13.70
2022-09-07T06:24:42.248Z,13.90
2022-09-07T06:29:44.704Z,14.00
2022-09-07T06:34:47.200Z,14.10
2022-09-07T06:39:49.816Z,14.20
2022-09-07T06:44:52.266Z,14.30
2022-09-07T06:49:54.763Z,14.50
2022-09-07T07:00:00.421Z,14.70
2022-09-07T07:05:02.964Z,14.80
2022-09-07T07:10:05.888Z,14.90
2022-09-07T07:15:09.062Z,15.10
2022-09-07T07:20:11.532Z,15.30
2022-09-07T07:25:15.075Z,15.50
2022-09-07T07:30:19.068Z,15.70
2022-09-07T07:35:22.866Z,15.80
2022-09-07T07:40:30.346Z,15.90
2022-09-07T07:51:02.641Z,16.20
2022-09-07T07:56:08.421Z,16.50
2022-09-07T08:01:12.868Z,16.80
2022-09-07T08:06:17.403Z,16.90
2022-09-07T08:11:21.047Z,16.90
2022-09-07T08:16:23.554Z,17.00
2022-09-07T08:21:26.035Z,17.10
2022-09-07T08:26:28.629Z,17.30
2022-09-07T08:31:33.065Z,17.40
2022-09-07T08:36:35.466Z,17.70
2022-09-07T08:42:21.025Z,17.90
2022-09-07T08:47:39.488Z,18.20
2022-09-07T08:53:13.690Z,18.60
2022-09-07T08:58:48.842Z,19.10
2022-09-07T09:09:23.748Z,19.50
2022-09-07T09:15:03.619Z,19.70
2022-09-07T09:20:06.318Z,19.80
2022-09-07T09:25:20.686Z,20.10
2022-09-07T09:30:24.985Z,20.10
2022-09-07T09:35:30.434Z,19.90
2022-09-07T09:40:35.147Z,19.90
2022-09-07T09:56:41.906Z,20.90
2022-09-07T10:07:25.942Z,21.50
2022-09-07T10:12:34.216Z,21.70
2022-09-07T10:17:41.795Z,22.00
2022-09-07T10:22:51.773Z,22.20
2022-09-07T10:28:14.121Z,22.70
2022-09-07T10:33:34.615Z,23.20
2022-09-07T10:38:49.793Z,23.10
2022-09-07T10:43:52.504Z,23.10
2022-09-07T10:49:18.951Z,23.20
2022-09-07T10:54:59.381Z,23.90
2022-09-07T11:00:12.892Z,24.00
2022-09-07T11:05:38.454Z,23.80
2022-09-07T11:11:08.111Z,24.20
2022-09-07T11:21:56.417Z,24.50
2022-09-07T11:27:06.334Z,24.80
2022-09-07T11:32:16.635Z,25.10
2022-09-07T11:37:24.754Z,25.20
2022-09-07T11:42:49.423Z,25.00
2022-09-07T11:48:04.976Z,25.10
2022-09-07T11:53:18.031Z,25.80
2022-09-07T11:58:29.915Z,26.10
2022-09-07T12:03:56.542Z,26.30
2022-09-07T12:09:22.232Z,26.40
2022-09-07T12:14:41.849Z,27.00
2022-09-07T12:19:44.251Z,27.20
2022-09-07T12:24:51.634Z,27.20
2022-09-07T12:30:01.785Z,27.60
2022-09-07T12:35:04.377Z,27.80
2022-09-07T12:40:34.908Z,28.00
2022-09-07T12:45:37.322Z,28.30
2022-09-07T12:51:02.919Z,28.80
2022-09-07T12:56:20.074Z,28.90
2022-09-07T13:01:44.346Z,28.70
2022-09-07T13:07:03.109Z,28.60
2022-09-07T13:17:56.531Z,29.00
2022-09-07T13:23:25.228Z,29.50
2022-09-07T13:28:30.168Z,29.70
2022-09-07T13:33:35.834Z,30.00
2022-09-07T13:38:42.682Z,30.60
2022-09-07T13:43:50.171Z,31.60
2022-09-07T13:49:01.723Z,31.80
2022-09-07T13:54:45.311Z,32.40
2022-09-07T13:59:50.886Z,33.10
2022-09-07T14:04:55.811Z,32.70
2022-09-07T14:10:25.261Z,33.20
2022-09-07T14:15:27.609Z,33.70
2022-09-07T14:20:30.657Z,34.10
2022-09-07T14:26:15.924Z,33.80
2022-09-07T14:30:56.127Z,34.20
2022-09-07T14:35:59.099Z,34.60
2022-09-07T14:41:04.484Z,34.10
2022-09-07T14:46:22.846Z,34.30
2022-09-07T14:51:35.084Z,34.60
2022-09-07T14:56:40.886Z,34.80
2022-09-07T15:01:43.367Z,34.80
2022-09-07T15:07:02.673Z,35.00
2022-09-07T15:12:05.721Z,34.40
2022-09-07T15:17:46.662Z,34.00
2022-09-07T15:22:49.293Z,32.50
2022-09-07T15:27:51.791Z,31.30
2022-09-07T15:32:56.852Z,31.60
2022-09-07T15:38:05.249Z,31.90
2022-09-07T15:43:19.968Z,31.70
2022-09-07T15:48:27.858Z,32.10
2022-09-07T15:58:53.926Z,31.10
2022-09-07T16:03:58.182Z,29.10
2022-09-07T16:09:00.656Z,27.50
2022-09-07T16:14:03.969Z,28.20
2022-09-07T16:19:07.269Z,29.20
2022-09-07T16:24:10.365Z,29.30
2022-09-07T16:29:12.735Z,28.30
2022-09-07T16:34:21.138Z,27.20
2022-09-07T16:39:23.615Z,26.40
2022-09-07T16:44:26.023Z,26.20
2022-09-07T16:49:28.860Z,26.30
2022-09-07T16:54:32.627Z,25.70
2022-09-07T16:59:35.094Z,25.20
2022-09-07T17:04:37.459Z,24.70
2022-09-07T17:09:41.218Z,24.30
2022-09-07T17:14:43.611Z,23.90
2022-09-07T17:19:46.225Z,23.60
2022-09-07T17:24:48.686Z,23.30
2022-09-07T17:29:53.751Z,23.10
2022-09-07T17:34:56.330Z,22.80
2022-09-07T17:39:58.834Z,22.70
2022-09-07T17:45:01.264Z,22.40
2022-09-07T17:50:03.828Z,22.30
2022-09-07T17:55:07.038Z,22.10
2022-09-07T18:00:12.118Z,22.00
2022-09-07T18:05:14.983Z,21.90
2022-09-07T18:10:17.460Z,21.80
2022-09-07T18:15:22.210Z,21.50
2022-09-07T18:20:25.885Z,21.40
2022-09-07T18:25:29.151Z,21.20
2022-09-07T18:30:34.965Z,21.10
2022-09-07T18:35:37.355Z,21.00
2022-09-07T18:40:40.799Z,20.90
2022-09-07T18:45:43.240Z,20.80
2022-09-07T18:50:52.505Z,20.80
2022-09-07T18:56:00.775Z,20.80
2022-09-07T19:01:05.827Z,20.70
2022-09-07T19:06:12.987Z,20.70
2022-09-07T19:11:22.109Z,20.70
2022-09-07T19:16:26.041Z,20.60
2022-09-07T19:21:31.072Z,20.60
2022-09-07T19:26:38.799Z,20.50
2022-09-07T19:31:48.847Z,20.40
2022-09-07T19:36:51.238Z,20.40
2022-09-07T19:41:54.015Z,20.30
2022-09-07T19:46:56.423Z,20.20
2022-09-07T19:51:59.406Z,20.10
2022-09-07T19:57:02.775Z,20.00
2022-09-07T20:02:06.181Z,19.90
2022-09-07T20:07:08.574Z,19.80
2022-09-07T20:12:10.953Z,19.60
2022-09-07T20:17:13.303Z,19.50
2022-09-07T20:22:15.674Z,19.40
2022-09-07T20:27:18.042Z,19.30
2022-09-07T20:32:20.400Z,19.30
2022-09-07T20:37:28.847Z,19.10
2022-09-07T20:42:31.521Z,19.10
2022-09-07T20:47:34.532Z,19.00
2022-09-07T20:52:36.959Z,18.80
2022-09-07T20:57:39.410Z,18.80
2022-09-07T21:02:41.757Z,18.70
2022-09-07T21:07:44.191Z,18.60
2022-09-07T21:12:46.570Z,18.60
2022-09-07T21:17:48.983Z,18.40
2022-09-07T21:22:51.356Z,18.40
2022-09-07T21:27:53.881Z,18.30
2022-09-07T21:32:59.854Z,18.30
2022-09-07T21:38:04.790Z,18.20
2022-09-07T21:43:07.448Z,18.10
2022-09-07T21:48:09.942Z,18.10
2022-09-07T21:53:12.735Z,18.00
2022-09-07T21:58:15.183Z,18.00
2022-09-07T22:03:17.844Z,17.90
2022-09-07T22:08:20.768Z,17.80
2022-09-07T22:13:23.108Z,17.80
2022-09-07T22:18:25.591Z,17.70
2022-09-07T22:23:30.922Z,17.70
2022-09-07T22:28:34.189Z,17.70
2022-09-07T22:33:36.572Z,17.70
2022-09-07T22:38:40.172Z,17.70
2022-09-07T22:43:44.107Z,17.80
2022-09-07T22:48:47.091Z,17.70
2022-09-07T22:53:49.461Z,17.70
2022-09-07T22:59:00.508Z,17.60
2022-09-07T23:04:03.598Z,17.50
2022-09-07T23:09:09.127Z,17.50
2022-09-07T23:14:15.206Z,17.40
2022-09-07T23:19:19.677Z,17.40
2022-09-07T23:24:22.171Z,17.30
2022-09-07T23:29:24.629Z,17.20
2022-09-07T23:34:27.035Z,17.20
2022-09-07T23:39:29.511Z,17.10
2022-09-07T23:44:32.251Z,17.10
2022-09-07T23:49:34.625Z,17.00
2022-09-07T23:54:37.021Z,17.00
2022-09-07T23:59:39.460Z,16.80
